Overview Statistics Trail Chart Weather Telemetry Raw packets
 

This is the latest recevied weather packets stored in our database for station/object DG1GMY-10. If no packets are shown the sender has not sent any weather packets the latest 10 day(s).

<< 2 3 4 5 6 7 8 >>
Time Temp. Humidity Pressure Rain* Wind** Luminosity Snow
1788269824 32.22° C 32% 1023 hPa - - - -
1788266204 24.44° C 49% 1023.7 hPa - - - -
1788262604 23.33° C 54% 1023.9 hPa - - - -
1788259004 21.67° C 59% 1024.3 hPa - - - -
1788255403 21.11° C 69% 1024.4 hPa - - - -
1788251803 20° C 76% 1024.5 hPa - - - -
1788248203 18.89° C 93% 1024.3 hPa - - - -
1788244603 17.22° C 100% 1024 hPa - - - -
1788241003 15.56° C 100% 1023.9 hPa - - - -
1788237403 15.56° C 100% 1023.5 hPa - - - -
1788233803 16.11° C 100% 1023.4 hPa - - - -
1788230203 16.67° C 100% 1023.3 hPa - - - -
1788226603 16.67° C 100% 1023.4 hPa - - - -
1788223003 16.67° C 100% 1023 hPa - - - -
1788219402 17.78° C 100% 1022.9 hPa - - - -
1788215802 17.22° C 100% 1022.8 hPa - - - -
1788212202 17.78° C 100% 1022.9 hPa - - - -
1788208602 18.33° C 95% 1021.9 hPa - - - -
1788205002 17.78° C 98% 1021.4 hPa - - - -
1788201402 17.78° C 100% 1021 hPa - - - -
1788197802 20.56° C 96% 1020.5 hPa - - - -
1788194202 18.33° C 100% 1020.3 hPa - - - -
1788190602 19.44° C 100% 1019.7 hPa - - - -
1788187001 25.56° C 46% 1018.7 hPa - - - -
1788183401 28.33° C 43% 1019 hPa - - - -

* Rain since midnight (hover to see other rain measurements)
** Current wind speed in m/s (hover to see current wind gust speed)